CL Antwerp — ONIJ — position and weather

sailwx.info

Track history (hours):
 
Tides and Currents Weather Stations Pressure Air Temp Water Temp Dewpoint Dewpoint Depression Visibility Wind Speed Wind Dir Waves Ship Positions

CL Antwerp

Last reported at 2018-May-07 10:00 UTC. Time now 2018-Jun-21 14:14 UTC.
Position N 35°59' W 005°32'.
Warning: this ship's position is 45 days out of date.

Length 180 m; draft 9.8 m.

Type: Cargo ship. MMSI: 205680000.

Date/timePositionNaut miles runAvg speedWind from/ knotsBaromVisibWave heightAir tempDewpointWater temp
2018-May-07 10:00N 35°59' W 005°32'611.3
2018-May-07 09:29N 36°01' W 005°26'4 8.5
2018-May-07 09:01N 36°04' W 005°23'4 4.4
2018-May-07 08:08N 36°08' W 005°22'0 0.1
2018-May-07 07:56N 36°08' W 005°22'0 0.0
2018-May-07 06:56N 36°08' W 005°22'0 0.0
2018-May-07 06:29N 36°08' W 005°22'0 0.1
2018-May-07 05:59N 36°08' W 005°22'0 0.2
2018-May-07 05:23N 36°08' W 005°22'0 0.1
2018-May-07 04:59N 36°08' W 005°22'0 0.0
2018-May-07 04:29N 36°08' W 005°22'0 0.1
2018-May-07 03:59N 36°08' W 005°22'0 0.1
2018-May-07 03:23N 36°08' W 005°22'0 0.1
2018-May-07 02:59N 36°08' W 005°22'0 0.0
2018-May-07 02:29N 36°08' W 005°22'0 0.1
2018-May-07 01:59N 36°08' W 005°22'0 0.2
2018-May-07 01:29N 36°08' W 005°22'0 0.2
2018-May-07 00:59N 36°08' W 005°22'1 2.8
2018-May-07 00:29N 36°06' W 005°22'3 7.0
2018-May-07 00:00N 36°06' W 005°18'510.1
2018-May-06 23:30N 36°09' W 005°13'  
2018-Apr-29 04:04N 37°00' E 007°53'28 8.2
2018-Apr-29 00:40N 37°28' E 007°47'1 7.5
2018-Apr-29 00:29N 37°29' E 007°46'  
Track history (hours):
 
Tides and Currents Weather Stations Pressure Air Temp Water Temp Dewpoint Dewpoint Depression Visibility Wind Speed Wind Dir Waves Ship Positions

CL Antwerp

Last reported at 2018-May-07 10:00 UTC. Time now 2018-Jun-21 14:14 UTC.
Position N 35°59' W 005°32'.
Warning: this ship's position is 45 days out of date.

Length 180 m; draft 9.8 m.

Type: Cargo ship. MMSI: 205680000.

Date/timePositionNaut miles runAvg speedWind from/ knotsBaromVisibWave heightAir tempDewpointWater temp
2018-May-07 10:00N 35°59' W 005°32'611.3
2018-May-07 09:29N 36°01' W 005°26'4 8.5
2018-May-07 09:01N 36°04' W 005°23'4 4.4
2018-May-07 08:08N 36°08' W 005°22'0 0.1
2018-May-07 07:56N 36°08' W 005°22'0 0.0
2018-May-07 06:56N 36°08' W 005°22'0 0.0
2018-May-07 06:29N 36°08' W 005°22'0 0.1
2018-May-07 05:59N 36°08' W 005°22'0 0.2
2018-May-07 05:23N 36°08' W 005°22'0 0.1
2018-May-07 04:59N 36°08' W 005°22'0 0.0
2018-May-07 04:29N 36°08' W 005°22'0 0.1
2018-May-07 03:59N 36°08' W 005°22'0 0.1
2018-May-07 03:23N 36°08' W 005°22'0 0.1
2018-May-07 02:59N 36°08' W 005°22'0 0.0
2018-May-07 02:29N 36°08' W 005°22'0 0.1
2018-May-07 01:59N 36°08' W 005°22'0 0.2
2018-May-07 01:29N 36°08' W 005°22'0 0.2
2018-May-07 00:59N 36°08' W 005°22'1 2.8
2018-May-07 00:29N 36°06' W 005°22'3 7.0
2018-May-07 00:00N 36°06' W 005°18'510.1
2018-May-06 23:30N 36°09' W 005°13'  
2018-Apr-29 04:04N 37°00' E 007°53'28 8.2
2018-Apr-29 00:40N 37°28' E 007°47'1 7.5
2018-Apr-29 00:29N 37°29' E 007°46'  

Dump ship's entire track history